createdAt,value
2019-02-07T00:00:20.608Z,0.3
2019-02-07T00:01:10.706Z,0.2
2019-02-07T00:02:01.010Z,0.2
2019-02-07T00:02:51.070Z,0.3
2019-02-07T00:03:41.115Z,0.3
2019-02-07T00:04:31.252Z,0.3
2019-02-07T00:05:20.965Z,0.2
2019-02-07T00:06:11.025Z,0.2
2019-02-07T00:07:02.308Z,0.3
2019-02-07T00:07:51.432Z,0.3
2019-02-07T00:08:41.488Z,0.2
2019-02-07T00:09:31.532Z,0.2
2019-02-07T00:10:21.325Z,0.2
2019-02-07T00:11:11.375Z,0.3
2019-02-07T00:12:01.709Z,0.2
2019-02-07T00:12:51.594Z,0.2
2019-02-07T00:13:41.550Z,0.3
2019-02-07T00:14:41.047Z,0.3
2019-02-07T00:15:21.954Z,0.2
2019-02-07T00:16:12.802Z,0.3
2019-02-07T00:17:02.067Z,0.2
2019-02-07T00:17:51.851Z,0.2
2019-02-07T00:18:41.901Z,0.3
2019-02-07T00:19:32.339Z,0.3
2019-02-07T00:20:22.287Z,0.3
2019-02-07T00:21:12.356Z,0.3
2019-02-07T00:22:02.137Z,0.2
2019-02-07T00:22:52.474Z,0.2
2019-02-07T00:23:42.529Z,0.3
2019-02-07T00:24:44.316Z,0.3
2019-02-07T00:25:23.390Z,0.3
2019-02-07T00:26:12.159Z,0.2
2019-02-07T00:27:02.506Z,0.2
2019-02-07T00:27:52.824Z,0.3
2019-02-07T00:28:42.326Z,0.3
2019-02-07T00:29:32.936Z,0.2
2019-02-07T00:30:22.993Z,0.2
2019-02-07T00:31:12.938Z,0.2
2019-02-07T00:32:03.111Z,0.2
2019-02-07T00:32:53.188Z,0.2
2019-02-07T00:33:43.233Z,0.3
2019-02-07T00:34:34.355Z,0.2
2019-02-07T00:35:23.068Z,0.3
2019-02-07T00:36:12.853Z,0.2
2019-02-07T00:37:03.466Z,0.2
2019-02-07T00:37:53.248Z,0.3
2019-02-07T00:38:43.305Z,0.3
2019-02-07T00:39:33.646Z,0.2
2019-02-07T00:40:23.695Z,0.3
2019-02-07T00:41:13.490Z,0.3
2019-02-07T00:42:03.807Z,0.2
2019-02-07T00:42:53.874Z,0.2
2019-02-07T00:43:44.899Z,0.2
2019-02-07T00:44:33.988Z,0.2
2019-02-07T00:45:24.039Z,0.2
2019-02-07T00:46:13.822Z,0.3
2019-02-07T00:47:04.164Z,0.3
2019-02-07T00:47:53.943Z,0.3
2019-02-07T00:48:44.282Z,0.3
2019-02-07T00:49:34.059Z,0.3
2019-02-07T00:50:24.129Z,0.2
2019-02-07T00:51:14.469Z,0.3
2019-02-07T00:52:04.242Z,0.3
2019-02-07T00:52:55.447Z,0.3
2019-02-07T00:53:44.722Z,0.2
2019-02-07T00:54:34.699Z,0.2
2019-02-07T00:55:24.497Z,0.2
2019-02-07T00:56:14.526Z,0.3
2019-02-07T00:57:04.864Z,0.3
2019-02-07T00:57:54.939Z,0.2
2019-02-07T00:58:45.057Z,0.3
2019-02-07T00:59:34.759Z,0.2
2019-02-07T01:00:25.124Z,0.2
2019-02-07T01:01:15.253Z,0.2
2019-02-07T01:02:06.250Z,0.2
2019-02-07T01:02:55.298Z,0.2
2019-02-07T01:03:45.066Z,0.2
2019-02-07T01:04:35.397Z,0.2
2019-02-07T01:05:25.181Z,0.2
2019-02-07T01:06:15.223Z,0.2
2019-02-07T01:07:05.311Z,0.2
2019-02-07T01:07:55.371Z,0.2
2019-02-07T01:08:45.405Z,0.2
2019-02-07T01:09:35.468Z,0.2
2019-02-07T01:10:25.713Z,0.2
2019-02-07T01:11:16.666Z,0.2
2019-02-07T01:12:05.368Z,0.2
2019-02-07T01:12:55.985Z,0.2
2019-02-07T01:13:45.773Z,0.2
2019-02-07T01:14:36.113Z,0.2
2019-02-07T01:15:26.163Z,0.2
2019-02-07T01:16:16.321Z,0.2
2019-02-07T01:17:06.273Z,0.2
2019-02-07T01:17:56.050Z,0.2
2019-02-07T01:18:46.127Z,0.2
2019-02-07T01:19:36.442Z,0.2
2019-02-07T01:20:27.285Z,0.2
2019-02-07T01:21:16.298Z,0.2
2019-02-07T01:22:06.661Z,0.2
2019-02-07T01:22:56.710Z,0.2
2019-02-07T01:23:46.754Z,0.2
2019-02-07T01:24:36.802Z,0.2
2019-02-07T01:25:26.580Z,0.2
2019-02-07T01:26:17.127Z,0.2
2019-02-07T01:27:06.964Z,0.2
2019-02-07T01:27:56.762Z,0.2
2019-02-07T01:28:47.102Z,0.2
2019-02-07T01:29:37.242Z,0.2
2019-02-07T01:30:27.211Z,0.2
2019-02-07T01:31:17.264Z,0.2
2019-02-07T01:32:07.329Z,0.2
2019-02-07T01:32:57.391Z,0.1
2019-02-07T01:33:47.439Z,0.2
2019-02-07T01:34:37.001Z,0.2
2019-02-07T01:35:28.261Z,0.2
2019-02-07T01:36:17.341Z,0.1
2019-02-07T01:37:07.671Z,0.1
2019-02-07T01:37:57.466Z,0.1
2019-02-07T01:38:47.529Z,0.1
2019-02-07T01:39:37.643Z,0.1
2019-02-07T01:40:27.633Z,0.1
2019-02-07T01:41:17.701Z,0.1
2019-02-07T01:42:07.759Z,0.1
2019-02-07T01:42:58.091Z,0.1
2019-02-07T01:43:47.601Z,0.1
2019-02-07T01:44:39.091Z,0.1
2019-02-07T01:45:28.259Z,0.1
2019-02-07T01:46:18.333Z,0.1
2019-02-07T01:47:08.108Z,0.1
2019-02-07T01:47:58.431Z,0.1
2019-02-07T01:48:47.948Z,0.1
2019-02-07T01:49:38.548Z,0.1
2019-02-07T01:50:28.616Z,0.1
2019-02-07T01:51:18.391Z,0.1
2019-02-07T01:52:08.783Z,0
2019-02-07T01:52:58.793Z,0
2019-02-07T01:53:49.390Z,0.1
2019-02-07T01:54:38.910Z,0
2019-02-07T01:55:28.983Z,0
2019-02-07T01:56:19.030Z,0
2019-02-07T01:57:09.088Z,0
2019-02-07T01:57:59.237Z,0
2019-02-07T01:58:49.207Z,0
2019-02-07T01:59:38.701Z,0
2019-02-07T02:00:29.324Z,-0.1
2019-02-07T02:01:19.110Z,-0.1
2019-02-07T02:02:09.150Z,-0.1
2019-02-07T02:03:00.107Z,-0.1
2019-02-07T02:03:49.579Z,-0.1
2019-02-07T02:04:39.625Z,-0.1
2019-02-07T02:05:29.677Z,-0.1
2019-02-07T02:06:19.743Z,-0.1
2019-02-07T02:07:09.502Z,-0.1
2019-02-07T02:07:59.859Z,-0.1
2019-02-07T02:08:50.014Z,-0.1
2019-02-07T02:09:39.949Z,-0.1
2019-02-07T02:10:30.030Z,-0.1
2019-02-07T02:11:19.519Z,-0.2
2019-02-07T02:12:10.874Z,-0.2
2019-02-07T02:13:00.189Z,-0.2
2019-02-07T02:13:49.709Z,-0.2
2019-02-07T02:14:39.759Z,-0.2
2019-02-07T02:15:30.092Z,-0.2
2019-02-07T02:16:20.154Z,-0.2
2019-02-07T02:17:10.204Z,-0.3
2019-02-07T02:18:00.545Z,-0.2
2019-02-07T02:18:50.605Z,-0.3
2019-02-07T02:19:40.115Z,-0.3
2019-02-07T02:20:30.725Z,-0.3
2019-02-07T02:21:21.740Z,-0.3
2019-02-07T02:22:10.831Z,-0.3
2019-02-07T02:23:00.632Z,-0.3
2019-02-07T02:23:50.718Z,-0.3
2019-02-07T02:24:41.019Z,-0.3
2019-02-07T02:25:31.078Z,-0.3
2019-02-07T02:26:21.123Z,-0.3
2019-02-07T02:27:11.383Z,-0.4
2019-02-07T02:28:01.263Z,-0.3
2019-02-07T02:28:51.308Z,-0.4
2019-02-07T02:29:41.373Z,-0.4
2019-02-07T02:30:32.045Z,-0.4
2019-02-07T02:31:21.210Z,-0.4
2019-02-07T02:32:11.278Z,-0.4
2019-02-07T02:33:01.362Z,-0.4
2019-02-07T02:33:51.682Z,-0.4
2019-02-07T02:34:41.716Z,-0.4
2019-02-07T02:35:31.780Z,-0.4
2019-02-07T02:36:22.297Z,-0.4
2019-02-07T02:37:11.625Z,-0.4
2019-02-07T02:38:01.963Z,-0.4
2019-02-07T02:38:51.740Z,-0.5
2019-02-07T02:39:41.812Z,-0.5
2019-02-07T02:40:32.127Z,-0.4
2019-02-07T02:41:22.204Z,-0.5
2019-02-07T02:42:12.261Z,-0.5
2019-02-07T02:43:02.298Z,-0.5
2019-02-07T02:43:52.085Z,-0.5
2019-02-07T02:44:42.417Z,-0.6
2019-02-07T02:45:38.922Z,-0.6
2019-02-07T02:46:21.987Z,-0.6
2019-02-07T02:47:12.604Z,-0.6
2019-02-07T02:48:02.392Z,-0.6
2019-02-07T02:48:52.179Z,-0.6
2019-02-07T02:49:42.766Z,-0.6
2019-02-07T02:50:32.562Z,-0.6
2019-02-07T02:51:22.915Z,-0.6
2019-02-07T02:52:12.731Z,-0.6
2019-02-07T02:53:02.732Z,-0.6
2019-02-07T02:53:53.058Z,-0.6
2019-02-07T02:54:44.141Z,-0.7
2019-02-07T02:55:33.212Z,-0.6
2019-02-07T02:56:22.994Z,-0.7
2019-02-07T02:57:13.301Z,-0.7
2019-02-07T02:58:03.408Z,-0.7
2019-02-07T02:58:52.695Z,-0.7
2019-02-07T02:59:43.231Z,-0.7
2019-02-07T03:00:33.636Z,-0.7
2019-02-07T03:01:23.318Z,-0.7
2019-02-07T03:02:13.376Z,-0.7
2019-02-07T03:03:03.459Z,-0.7
2019-02-07T03:03:54.135Z,-0.7
2019-02-07T03:04:43.829Z,-0.8
2019-02-07T03:08:15.848Z,-0.8
2019-02-07T03:09:05.902Z,-0.8
2019-02-07T03:09:56.006Z,-0.8
2019-02-07T03:10:46.628Z,-0.8
2019-02-07T03:11:36.093Z,-0.8
2019-02-07T03:12:25.590Z,-0.8
2019-02-07T03:13:15.894Z,-0.8
2019-02-07T03:14:05.967Z,-0.8
2019-02-07T03:14:56.023Z,-0.8
2019-02-07T03:15:50.945Z,-0.8
2019-02-07T03:16:36.420Z,-0.8
2019-02-07T03:17:26.463Z,-0.8
2019-02-07T03:18:16.541Z,-0.8
2019-02-07T03:19:06.348Z,-0.8
2019-02-07T03:19:57.559Z,-0.8
2019-02-07T03:20:46.702Z,-0.8
2019-02-07T03:21:36.551Z,-0.8
2019-02-07T03:22:26.541Z,-0.8
2019-02-07T03:23:16.887Z,-0.8
2019-02-07T03:24:06.956Z,-0.9
2019-02-07T03:24:57.017Z,-0.9
2019-02-07T03:25:46.906Z,-0.8
2019-02-07T03:26:37.215Z,-0.9
2019-02-07T03:27:27.173Z,-0.9
2019-02-07T03:28:17.277Z,-0.9
2019-02-07T03:29:08.250Z,-0.9
2019-02-07T03:29:57.358Z,-0.9
2019-02-07T03:30:47.427Z,-0.9
2019-02-07T03:31:37.225Z,-0.9
2019-02-07T03:32:27.576Z,-0.9
2019-02-07T03:33:17.338Z,-0.8
2019-02-07T03:34:07.367Z,-0.9
2019-02-07T03:34:57.914Z,-0.9
2019-02-07T03:35:47.779Z,-0.9
2019-02-07T03:36:37.819Z,-0.9
2019-02-07T03:37:27.883Z,-0.9
2019-02-07T03:38:18.719Z,-0.9
2019-02-07T03:39:07.994Z,-0.9
2019-02-07T03:39:57.795Z,-0.9
2019-02-07T03:40:47.829Z,-0.9
2019-02-07T03:41:38.178Z,-0.9
2019-02-07T03:42:27.954Z,-0.9
2019-02-07T03:43:18.281Z,-0.9
2019-02-07T03:44:08.716Z,-0.9
2019-02-07T03:44:58.144Z,-0.9
2019-02-07T03:45:48.457Z,-0.9
2019-02-07T03:47:29.172Z,-0.9
2019-02-07T03:49:58.504Z,-0.9
2019-02-07T03:50:48.845Z,-0.9
2019-02-07T03:51:38.593Z,-0.9
2019-02-07T03:52:28.650Z,-0.9
2019-02-07T03:53:19.313Z,-0.9
2019-02-07T03:54:09.055Z,-0.9
2019-02-07T03:54:59.107Z,-0.9
2019-02-07T03:55:49.266Z,-0.9
2019-02-07T03:56:39.280Z,-0.9
2019-02-07T03:57:29.020Z,-0.9
2019-02-07T03:58:19.350Z,-0.9
2019-02-07T03:59:09.125Z,-0.9
2019-02-07T03:59:59.477Z,-0.9
2019-02-07T04:00:49.537Z,-0.9
2019-02-07T04:01:39.575Z,-0.9
2019-02-07T04:02:29.930Z,-0.9
2019-02-07T04:03:19.785Z,-0.9
2019-02-07T04:04:09.749Z,-0.9
2019-02-07T04:04:59.792Z,-0.9
2019-02-07T04:05:50.910Z,-0.8
2019-02-07T04:06:39.647Z,-0.9
2019-02-07T04:07:29.988Z,-0.9
2019-02-07T04:08:19.777Z,-0.9
2019-02-07T04:09:09.869Z,-0.9
2019-02-07T04:09:59.893Z,-0.9
2019-02-07T04:10:50.208Z,-0.8
2019-02-07T04:11:40.462Z,-0.8
2019-02-07T04:12:30.348Z,-0.8
2019-02-07T04:13:20.397Z,-0.9
2019-02-07T04:14:10.166Z,-0.9
2019-02-07T04:15:01.260Z,-0.8
2019-02-07T04:15:50.291Z,-0.8
2019-02-07T04:16:40.364Z,-0.8
2019-02-07T04:17:30.719Z,-0.8
2019-02-07T04:18:20.582Z,-0.8
2019-02-07T04:19:10.809Z,-0.8
2019-02-07T04:20:00.873Z,-0.8
2019-02-07T04:20:50.982Z,-0.8
2019-02-07T04:21:40.974Z,-0.8
2019-02-07T04:22:30.809Z,-0.8
2019-02-07T04:23:20.830Z,-0.8
2019-02-07T04:24:12.135Z,-0.8
2019-02-07T04:25:01.429Z,-0.8
2019-02-07T04:25:51.000Z,-0.8
2019-02-07T04:26:41.069Z,-0.8
2019-02-07T04:27:31.398Z,-0.8
2019-02-07T04:28:21.507Z,-0.8
2019-02-07T04:29:11.506Z,-0.8
2019-02-07T04:30:01.903Z,-0.8
2019-02-07T04:30:51.691Z,-0.8
2019-02-07T04:31:41.724Z,-0.8
2019-02-07T04:32:31.485Z,-0.8
2019-02-07T04:33:22.204Z,-0.8
2019-02-07T04:34:11.589Z,-0.8
2019-02-07T04:35:01.964Z,-0.8
2019-02-07T04:35:51.690Z,-0.8
2019-02-07T04:36:41.520Z,-0.8
2019-02-07T04:37:32.189Z,-0.8
2019-02-07T04:38:22.149Z,-0.8
2019-02-07T04:39:11.804Z,-0.8
2019-02-07T04:40:02.274Z,-0.8
2019-02-07T04:40:52.055Z,-0.8
2019-02-07T04:41:42.385Z,-0.8
2019-02-07T04:42:33.343Z,-0.8
2019-02-07T04:43:22.219Z,-0.8
2019-02-07T04:44:12.278Z,-0.8
2019-02-07T04:45:02.370Z,-0.8
2019-02-07T04:45:52.667Z,-0.8
2019-02-07T04:46:42.745Z,-0.8
2019-02-07T04:47:32.527Z,-0.8
2019-02-07T04:48:22.836Z,-0.8
2019-02-07T04:49:12.627Z,-0.8
2019-02-07T04:50:02.988Z,-0.8
2019-02-07T04:50:52.767Z,-0.8
2019-02-07T04:51:44.078Z,-0.8
2019-02-07T04:52:32.882Z,-0.8
2019-02-07T04:53:23.207Z,-0.8
2019-02-07T04:54:13.255Z,-0.8
2019-02-07T04:55:03.312Z,-0.7
2019-02-07T04:55:53.090Z,-0.8
2019-02-07T04:56:43.436Z,-0.8
2019-02-07T04:57:33.344Z,-0.8
2019-02-07T04:58:23.564Z,-0.7
2019-02-07T04:59:13.620Z,-0.7
2019-02-07T05:00:03.786Z,-0.7
2019-02-07T05:00:54.656Z,-0.7
2019-02-07T05:01:43.799Z,-0.7
2019-02-07T05:02:33.863Z,-0.7
2019-02-07T05:03:23.994Z,-0.7
2019-02-07T05:04:13.950Z,-0.7
2019-02-07T05:05:03.751Z,-0.7
2019-02-07T05:05:54.071Z,-0.7
2019-02-07T05:06:44.490Z,-0.7
2019-02-07T05:07:34.208Z,-0.7
2019-02-07T05:08:23.991Z,-0.7
2019-02-07T05:09:14.046Z,-0.7
2019-02-07T05:10:04.671Z,-0.7
2019-02-07T05:10:54.138Z,-0.7
2019-02-07T05:11:44.487Z,-0.7
2019-02-07T05:12:34.275Z,-0.7
2019-02-07T05:13:24.595Z,-0.7
2019-02-07T05:14:14.400Z,-0.7
2019-02-07T05:15:04.712Z,-0.7
2019-02-07T05:15:54.985Z,-0.7
2019-02-07T05:16:45.316Z,-0.7
2019-02-07T05:17:34.890Z,-0.7
2019-02-07T05:18:24.953Z,-0.7
2019-02-07T05:19:14.441Z,-0.7
2019-02-07T05:20:05.080Z,-0.7
2019-02-07T05:20:54.565Z,-0.7
2019-02-07T05:21:44.921Z,-0.7
2019-02-07T05:22:35.256Z,-0.7
2019-02-07T05:23:24.752Z,-0.7
2019-02-07T05:24:15.074Z,-0.7
2019-02-07T05:25:06.452Z,-0.7
2019-02-07T05:25:55.470Z,-0.7
2019-02-07T05:26:45.519Z,-0.6
2019-02-07T05:27:36.367Z,-0.7
2019-02-07T05:28:25.650Z,-0.6
2019-02-07T05:29:15.701Z,-0.6
2019-02-07T05:30:05.752Z,-0.6
2019-02-07T05:30:55.539Z,-0.7
2019-02-07T05:31:45.324Z,-0.6
2019-02-07T05:32:37.684Z,-0.6
2019-02-07T05:33:25.717Z,-0.6
2019-02-07T05:34:17.034Z,-0.6
2019-02-07T05:35:06.133Z,-0.6
2019-02-07T05:35:56.239Z,-0.6
2019-02-07T05:36:46.222Z,-0.6
2019-02-07T05:37:35.997Z,-0.6
2019-02-07T05:38:26.347Z,-0.6
2019-02-07T05:39:16.229Z,-0.6
2019-02-07T05:40:06.571Z,-0.6
2019-02-07T05:40:56.524Z,-0.6
2019-02-07T05:41:46.574Z,-0.6
2019-02-07T05:42:36.343Z,-0.6
2019-02-07T05:43:27.539Z,-0.6
2019-02-07T05:44:16.731Z,-0.6
2019-02-07T05:45:06.533Z,-0.6
2019-02-07T05:45:56.578Z,-0.6
2019-02-07T05:46:53.236Z,-0.6
2019-02-07T05:47:36.693Z,-0.6
2019-02-07T05:48:26.887Z,-0.6
2019-02-07T05:49:17.333Z,-0.6
2019-02-07T05:50:07.144Z,-0.6
2019-02-07T05:50:57.225Z,-0.6
2019-02-07T05:51:47.254Z,-0.6
2019-02-07T05:52:38.052Z,-0.6
2019-02-07T05:53:27.106Z,-0.6
2019-02-07T05:54:17.421Z,-0.6
2019-02-07T05:55:07.540Z,-0.6
2019-02-07T05:55:57.545Z,-0.6
2019-02-07T05:56:47.064Z,-0.6
2019-02-07T05:57:37.413Z,-0.6
2019-02-07T05:58:28.345Z,-0.6
2019-02-07T05:59:17.780Z,-0.6
2019-02-07T06:00:07.880Z,-0.6
2019-02-07T06:00:57.635Z,-0.6
2019-02-07T06:01:47.975Z,-0.6
2019-02-07T06:02:38.024Z,-0.6
2019-02-07T06:03:27.527Z,-0.5
2019-02-07T06:04:17.864Z,-0.6
2019-02-07T06:06:15.697Z,-0.6
2019-02-07T06:07:05.467Z,-0.6
2019-02-07T06:07:55.814Z,-0.5
2019-02-07T06:08:46.412Z,-0.5
2019-02-07T06:09:35.934Z,-0.5
2019-02-07T06:10:25.698Z,-0.5
2019-02-07T06:11:16.041Z,-0.5
2019-02-07T06:12:05.824Z,-0.5
2019-02-07T06:12:56.182Z,-0.5
2019-02-07T06:13:46.247Z,-0.4
2019-02-07T06:14:36.268Z,-0.5
2019-02-07T06:15:26.326Z,-0.5
2019-02-07T06:16:16.102Z,-0.5
2019-02-07T06:17:06.441Z,-0.5
2019-02-07T06:17:57.425Z,-0.4
2019-02-07T06:19:00.925Z,-0.4
2019-02-07T06:19:36.620Z,-0.4
2019-02-07T06:20:26.666Z,-0.4
2019-02-07T06:21:16.744Z,-0.4
2019-02-07T06:22:06.792Z,-0.4
2019-02-07T06:22:56.849Z,-0.4
2019-02-07T06:23:46.739Z,-0.4
2019-02-07T06:24:36.956Z,-0.4
2019-02-07T06:25:26.934Z,-0.4
2019-02-07T06:26:17.079Z,-0.4
2019-02-07T06:27:08.068Z,-0.4
2019-02-07T06:27:57.206Z,-0.4
2019-02-07T06:28:46.986Z,-0.4
2019-02-07T06:29:37.328Z,-0.4
2019-02-07T06:30:27.098Z,-0.3
2019-02-07T06:31:17.141Z,-0.3
2019-02-07T06:32:07.482Z,-0.3
2019-02-07T06:32:57.538Z,-0.3
2019-02-07T06:33:47.603Z,-0.3
2019-02-07T06:34:37.663Z,-0.3
2019-02-07T06:35:27.715Z,-0.3
2019-02-07T06:36:18.808Z,-0.2
2019-02-07T06:37:07.837Z,-0.2
2019-02-07T06:37:57.617Z,-0.1
2019-02-07T06:38:47.957Z,-0.1
2019-02-07T06:39:37.745Z,-0.1
2019-02-07T06:40:27.260Z,0
2019-02-07T06:41:18.188Z,0
2019-02-07T06:42:07.929Z,0.1
2019-02-07T06:42:58.267Z,0.1
2019-02-07T06:43:48.297Z,0.1
2019-02-07T06:44:38.361Z,0.2
2019-02-07T06:45:28.691Z,0.3
2019-02-07T06:46:18.557Z,0.3
2019-02-07T06:47:15.246Z,0.3
2019-02-07T06:47:58.574Z,0.4
2019-02-07T06:48:48.374Z,0.4
2019-02-07T06:49:38.713Z,0.5
2019-02-07T06:50:28.833Z,0.6
2019-02-07T06:51:18.814Z,0.6
2019-02-07T06:52:08.597Z,0.7
2019-02-07T06:52:58.987Z,0.7
2019-02-07T06:53:48.994Z,0.8
2019-02-07T06:54:39.690Z,0.8
2019-02-07T06:55:29.100Z,0.9
2019-02-07T06:56:19.154Z,0.9
2019-02-07T06:57:09.224Z,0.9
2019-02-07T06:57:59.296Z,1
2019-02-07T06:58:49.341Z,1
2019-02-07T07:01:17.972Z,1.2
2019-02-07T07:02:08.497Z,1.2
2019-02-07T07:02:58.287Z,1.2
2019-02-07T07:03:49.227Z,1.3
2019-02-07T07:06:15.630Z,1.3
2019-02-07T07:07:05.542Z,1.4
2019-02-07T07:07:55.767Z,1.4
2019-02-07T07:08:45.820Z,1.4
2019-02-07T07:09:36.379Z,1.4
2019-02-07T07:10:25.937Z,1.5
2019-02-07T07:11:15.995Z,1.5
2019-02-07T07:12:05.843Z,1.6
2019-02-07T07:12:56.457Z,1.6
2019-02-07T07:13:45.874Z,1.6
2019-02-07T07:14:36.209Z,1.7
2019-02-07T07:15:26.079Z,1.7
2019-02-07T07:16:16.347Z,1.8
2019-02-07T07:17:06.394Z,1.9
2019-02-07T07:17:56.460Z,2
2019-02-07T07:18:46.000Z,2.1
2019-02-07T07:19:36.287Z,2.2
2019-02-07T07:20:25.874Z,2.3
2019-02-07T07:21:16.679Z,2.4
2019-02-07T07:22:07.508Z,2.6
2019-02-07T07:22:56.798Z,2.7
2019-02-07T07:23:46.861Z,2.8
2019-02-07T07:24:36.906Z,2.9
2019-02-07T07:25:27.054Z,3
2019-02-07T07:26:17.034Z,3.1
2019-02-07T07:27:06.819Z,3.2
2019-02-07T07:27:57.148Z,3.3
2019-02-07T07:28:47.209Z,3.4
2019-02-07T07:29:37.283Z,3.4
2019-02-07T07:30:27.318Z,3.6
2019-02-07T07:31:18.193Z,3.7
2019-02-07T07:32:07.546Z,3.8
2019-02-07T07:32:57.030Z,3.8
2019-02-07T07:33:47.092Z,3.9
2019-02-07T07:34:36.861Z,4
2019-02-07T07:35:27.201Z,4.1
2019-02-07T07:36:17.835Z,4.2
2019-02-07T07:37:07.522Z,4.3
2019-02-07T07:37:57.858Z,4.3
2019-02-07T07:38:47.628Z,4.4
2019-02-07T07:39:37.702Z,4.4
2019-02-07T07:40:28.546Z,4.6
2019-02-07T07:41:18.085Z,4.6
2019-02-07T07:42:08.147Z,4.7
2019-02-07T07:42:57.942Z,4.8
2019-02-07T07:43:47.975Z,4.9
2019-02-07T07:44:38.046Z,5
2019-02-07T07:45:28.375Z,5.1
2019-02-07T07:46:18.145Z,5.2
2019-02-07T07:47:08.500Z,5.3
2019-02-07T07:47:58.265Z,5.4
2019-02-07T07:48:48.633Z,5.6
2019-02-07T07:49:39.226Z,5.7
2019-02-07T07:50:28.780Z,5.9
2019-02-07T07:51:18.792Z,6.1
2019-02-07T07:52:08.857Z,6.3
2019-02-07T07:52:58.903Z,5.6
2019-02-07T07:53:48.947Z,4.1
2019-02-07T07:54:39.024Z,12.3
2019-02-07T07:55:28.811Z,26.4
2019-02-07T07:56:19.144Z,29.8
2019-02-07T07:57:08.928Z,31.9
2019-02-07T07:57:59.260Z,32.8
2019-02-07T07:58:50.149Z,32.9
2019-02-07T07:59:39.102Z,31.8
2019-02-07T08:00:29.424Z,30.6
2019-02-07T08:01:19.489Z,29.9
2019-02-07T08:02:09.564Z,29.3
2019-02-07T08:02:59.311Z,28.8
2019-02-07T08:03:49.386Z,28.4
2019-02-07T08:04:39.714Z,28
2019-02-07T08:05:29.494Z,27.7
2019-02-07T08:06:19.924Z,27.4
2019-02-07T08:07:09.331Z,27.2
2019-02-07T08:08:00.909Z,26.9
2019-02-07T08:08:49.991Z,26.7
2019-02-07T08:09:40.068Z,26.4
2019-02-07T08:10:30.204Z,26.3
2019-02-07T08:11:19.896Z,26.1
2019-02-07T08:12:10.231Z,25.8
2019-02-07T08:13:00.018Z,25.7
2019-02-07T08:13:50.348Z,25.5
2019-02-07T08:14:40.138Z,25.3
2019-02-07T08:15:30.194Z,25.1
2019-02-07T08:16:20.519Z,24.9
2019-02-07T08:17:11.405Z,24.8
2019-02-07T08:18:00.641Z,24.6
2019-02-07T08:18:50.144Z,24.4
2019-02-07T08:19:40.211Z,24.3
2019-02-07T08:20:30.573Z,24.1
2019-02-07T08:21:20.974Z,24
2019-02-07T08:22:10.939Z,23.9
2019-02-07T08:23:00.713Z,23.8
2019-02-07T08:23:50.776Z,23.6
2019-02-07T08:24:41.111Z,23.5
2019-02-07T08:25:31.172Z,23.4
2019-02-07T08:26:21.819Z,23.3
2019-02-07T08:27:11.000Z,23.2
2019-02-07T08:28:01.066Z,23.1
2019-02-07T08:28:51.410Z,23.1
2019-02-07T08:29:41.474Z,23
2019-02-07T08:30:38.118Z,22.9
2019-02-07T08:31:21.294Z,22.9
2019-02-07T08:32:11.366Z,22.9
2019-02-07T08:33:01.700Z,23
2019-02-07T08:33:51.479Z,23.1
2019-02-07T08:34:41.824Z,23.1
2019-02-07T08:35:32.890Z,23.8
2019-02-07T08:36:21.367Z,25.2
2019-02-07T08:37:11.988Z,25.4
2019-02-07T08:38:02.054Z,32.1
2019-02-07T08:38:52.120Z,32.6
2019-02-07T08:39:41.878Z,34.8
2019-02-07T08:40:32.305Z,36.5
2019-02-07T08:41:22.273Z,37.2
2019-02-07T08:42:12.070Z,37.2
2019-02-07T08:43:02.398Z,36.8
2019-02-07T08:43:52.640Z,36.4
2019-02-07T08:44:43.021Z,36.4
2019-02-07T08:45:32.636Z,36.6
2019-02-07T08:46:22.362Z,36.8
2019-02-07T08:47:12.705Z,36.9
2019-02-07T08:48:05.760Z,37.1
2019-02-07T08:48:52.616Z,37.3
2019-02-07T08:49:42.862Z,37.4
2019-02-07T08:50:32.664Z,37.4
2019-02-07T08:51:22.967Z,37.4
2019-02-07T08:52:13.087Z,37.4
2019-02-07T08:53:03.094Z,37.4
2019-02-07T08:53:54.049Z,37.4
2019-02-07T08:54:42.937Z,37.4
2019-02-07T08:55:36.089Z,37.3
2019-02-07T08:56:23.319Z,37.4
2019-02-07T08:57:13.436Z,37.4
2019-02-07T08:58:03.164Z,37.4
2019-02-07T08:58:53.506Z,37.4
2019-02-07T08:59:43.546Z,37.4
2019-02-07T09:00:33.344Z,37.4
2019-02-07T09:01:23.680Z,37.4
2019-02-07T09:02:13.462Z,37.4
2019-02-07T09:03:04.592Z,37.4
2019-02-07T09:03:53.586Z,37.6
2019-02-07T09:04:43.642Z,37.9
2019-02-07T09:05:33.698Z,38.3
2019-02-07T09:06:23.479Z,38.5
2019-02-07T09:07:14.099Z,38.8
2019-02-07T09:08:03.866Z,39.2
2019-02-07T09:08:54.033Z,39.7
2019-02-07T09:09:44.001Z,40.1
2019-02-07T09:10:33.771Z,40.5
2019-02-07T09:11:24.394Z,40.8
2019-02-07T09:12:14.598Z,41.2
2019-02-07T09:13:04.504Z,41.4
2019-02-07T09:13:55.376Z,41.8
2019-02-07T09:14:44.334Z,42.1
2019-02-07T09:15:34.405Z,42.3
2019-02-07T09:16:24.725Z,42.6
2019-02-07T09:17:16.144Z,42.8
2019-02-07T09:18:14.450Z,43.1
2019-02-07T09:18:54.624Z,43.3
2019-02-07T09:19:44.411Z,43.5
2019-02-07T09:20:35.113Z,43.8
2019-02-07T09:21:25.792Z,44
2019-02-07T09:22:15.135Z,44.3
2019-02-07T09:23:05.198Z,44.5
2019-02-07T09:23:54.980Z,44.7
2019-02-07T09:24:45.297Z,44.9
2019-02-07T09:25:36.167Z,45.2
2019-02-07T09:26:25.436Z,45.3
2019-02-07T09:27:15.495Z,45.4
2019-02-07T09:28:05.289Z,45.3
2019-02-07T09:28:55.317Z,45.1
2019-02-07T09:29:45.382Z,44.9
2019-02-07T09:30:36.049Z,44.9
2019-02-07T09:31:25.911Z,44.9
2019-02-07T09:32:15.564Z,45.3
2019-02-07T09:33:05.887Z,45.5
2019-02-07T09:33:55.957Z,45.6
2019-02-07T09:34:46.019Z,45.7
2019-02-07T09:35:35.806Z,45.6
2019-02-07T09:36:25.856Z,45.4
2019-02-07T09:37:16.187Z,45.4
2019-02-07T09:38:06.069Z,45.4
2019-02-07T09:38:56.049Z,45.4
2019-02-07T09:39:47.047Z,45.6
2019-02-07T09:40:36.426Z,45.8
2019-02-07T09:41:26.493Z,45.9
2019-02-07T09:42:16.274Z,46
2019-02-07T09:43:06.614Z,45.9
2019-02-07T09:43:56.661Z,45.8
2019-02-07T09:44:46.724Z,45.6
2019-02-07T09:45:36.538Z,45.3
2019-02-07T09:46:26.564Z,45.1
2019-02-07T09:47:16.908Z,44.9
2019-02-07T09:48:06.403Z,44.9
2019-02-07T09:48:58.027Z,44.8
2019-02-07T09:49:47.101Z,44.7
2019-02-07T09:50:36.861Z,44.6
2019-02-07T09:51:27.218Z,44.6
2019-02-07T09:52:16.978Z,44.5
2019-02-07T09:53:07.313Z,44.4
2019-02-07T09:53:57.484Z,44.4
2019-02-07T09:54:46.910Z,44.3
2019-02-07T09:55:37.493Z,44.3
2019-02-07T09:56:27.298Z,44.3
2019-02-07T09:57:17.343Z,44.3
2019-02-07T09:58:08.648Z,44.2
2019-02-07T09:58:57.725Z,44.2
2019-02-07T09:59:47.510Z,44.1
2019-02-07T10:00:37.841Z,44.1
2019-02-07T10:01:27.631Z,43.9
2019-02-07T10:02:17.687Z,43.9
2019-02-07T10:03:07.767Z,43.8
2019-02-07T10:03:58.270Z,43.8
2019-02-07T10:04:48.152Z,43.7
2019-02-07T10:07:15.485Z,43.1
2019-02-07T10:08:05.297Z,42.7
2019-02-07T10:08:55.672Z,42.1
2019-02-07T10:09:45.679Z,41.8
2019-02-07T10:10:35.715Z,41.6
2019-02-07T10:11:25.507Z,41.4
2019-02-07T10:12:15.572Z,41.3
2019-02-07T10:13:06.531Z,40.8
2019-02-07T10:13:55.979Z,40.4
2019-02-07T10:14:46.024Z,40
2019-02-07T10:15:36.182Z,39.6
2019-02-07T10:16:26.262Z,39.3
2019-02-07T10:17:15.939Z,38.9
2019-02-07T10:18:06.012Z,38.7
2019-02-07T10:18:56.316Z,38.4
2019-02-07T10:19:46.374Z,38.1
2019-02-07T10:20:38.656Z,37.8
2019-02-07T10:21:25.958Z,37.5
2019-02-07T10:22:17.461Z,37.3
2019-02-07T10:23:06.356Z,36.9
2019-02-07T10:23:56.689Z,36.7
2019-02-07T10:24:46.739Z,36.4
2019-02-07T10:25:36.788Z,36.2
2019-02-07T10:26:27.086Z,35.9
2019-02-07T10:27:16.913Z,35.7
2019-02-07T10:28:06.969Z,35.4
2019-02-07T10:28:57.054Z,35.2
2019-02-07T10:29:46.813Z,35
2019-02-07T10:30:37.193Z,34.8
2019-02-07T10:31:28.158Z,34.5
2019-02-07T10:32:17.271Z,34.3
2019-02-07T10:33:07.062Z,34.1
2019-02-07T10:33:57.373Z,33.9
2019-02-07T10:34:47.441Z,33.7
2019-02-07T10:35:37.225Z,33.4
2019-02-07T10:36:27.580Z,33.3
2019-02-07T10:37:17.623Z,33.1
2019-02-07T10:38:07.411Z,32.9
2019-02-07T10:38:57.740Z,32.7
2019-02-07T10:39:47.813Z,32.5
2019-02-07T10:40:38.752Z,32.3
2019-02-07T10:41:27.935Z,32.1
2019-02-07T10:42:17.985Z,31.9
2019-02-07T10:43:08.055Z,31.7
2019-02-07T10:43:58.145Z,31.5
2019-02-07T10:44:47.906Z,31.3
2019-02-07T10:45:38.211Z,31.2
2019-02-07T10:46:28.285Z,30.9
2019-02-07T10:47:18.125Z,30.8
2019-02-07T10:48:08.410Z,30.6
2019-02-07T10:48:58.169Z,30.4
2019-02-07T10:50:00.244Z,30.3
2019-02-07T10:50:38.592Z,30.1
2019-02-07T10:51:28.712Z,29.9
2019-02-07T10:52:18.410Z,29.8
2019-02-07T10:53:08.489Z,29.6
2019-02-07T10:53:58.555Z,29.4
2019-02-07T10:54:48.872Z,29.3
2019-02-07T10:55:38.936Z,29.1
2019-02-07T10:56:28.706Z,28.9
2019-02-07T10:57:19.059Z,28.8
2019-02-07T10:58:08.832Z,28.6
2019-02-07T10:58:59.952Z,28.4
2019-02-07T10:59:49.222Z,28.3
2019-02-07T11:00:39.016Z,28.2
2019-02-07T11:01:29.349Z,28
2019-02-07T11:03:09.463Z,27.7
2019-02-07T11:03:59.518Z,27.6
2019-02-07T11:04:49.581Z,27.4
2019-02-07T11:05:39.701Z,27.3
2019-02-07T11:06:29.712Z,27.2
2019-02-07T11:07:19.771Z,27.1
2019-02-07T11:08:10.317Z,26.9
2019-02-07T11:08:59.882Z,26.8
2019-02-07T11:09:49.943Z,26.7
2019-02-07T11:10:40.046Z,26.6
2019-02-07T11:11:29.778Z,26.4
2019-02-07T11:12:20.118Z,26.3
2019-02-07T11:13:10.178Z,26.2
2019-02-07T11:13:59.956Z,26.1
2019-02-07T11:14:50.295Z,25.9
2019-02-07T11:15:40.350Z,25.8
2019-02-07T11:16:30.130Z,25.7
2019-02-07T11:17:21.385Z,25.6
2019-02-07T11:18:10.532Z,25.4
2019-02-07T11:19:00.315Z,25.4
2019-02-07T11:19:50.642Z,25.3
2019-02-07T11:20:40.472Z,25.1
2019-02-07T11:21:30.200Z,25.1
2019-02-07T11:22:23.623Z,24.9
2019-02-07T11:23:10.609Z,24.8
2019-02-07T11:24:00.960Z,24.8
2019-02-07T11:24:51.007Z,24.6
2019-02-07T11:25:41.062Z,24.5